Time;durP1;ratioP1;P1;durP2;ratioP2;P2;SDS_P1;SDS_P2;PMS_P1;PMS_P2;Temp;Humidity;BMP_temperature;BMP_pressure;BME280_temperature;BME280_humidity;BME280_pressure;Samples;Min_cycle;Max_cycle;Signal;HPM_P1;HPM_P2
2021/10/28 00:13:26;;;;;;;12.90;7.93;;;;;;;;;;5070768;28;20305;-73
2021/10/28 00:15:58;;;;;;;12.60;8.90;;;;;;;;;;5073072;28;20300;-72
2021/10/28 00:18:40;;;;;;;13.83;8.23;;;;;;;;;;5073055;28;20205;-71
2021/10/28 00:21:07;;;;;;;14.60;8.20;;;;;;;;;;5072049;28;20205;-72
2021/10/28 00:23:41;;;;;;;11.43;7.53;;;;;;;;;;5072586;28;20225;-71
2021/10/28 00:26:09;;;;;;;13.43;7.90;;;;;;;;;;5071615;28;20219;-72
2021/10/28 00:28:36;;;;;;;12.10;7.83;;;;;;;;;;5072434;28;20205;-71
2021/10/28 00:31:03;;;;;;;13.03;7.77;;;;;;;;;;5071846;28;20215;-72
2021/10/28 00:33:31;;;;;;;15.03;9.23;;;;;;;;;;5072362;28;20310;-71
2021/10/28 00:35:59;;;;;;;12.53;7.90;;;;;;;;;;5072441;28;20207;-72
2021/10/28 00:38:25;;;;;;;13.77;8.80;;;;;;;;;;5072371;28;20201;-72
2021/10/28 00:40:52;;;;;;;12.33;8.03;;;;;;;;;;5070981;28;20258;-72
2021/10/28 00:43:19;;;;;;;13.43;7.83;;;;;;;;;;5073108;28;20260;-71
2021/10/28 00:45:50;;;;;;;12.97;7.67;;;;;;;;;;5072592;28;20201;-72
2021/10/28 00:48:16;;;;;;;11.60;7.90;;;;;;;;;;5052692;28;20202;-71
2021/10/28 00:50:43;;;;;;;13.67;8.87;;;;;;;;;;5051533;28;20240;-71
2021/10/28 00:53:09;;;;;;;12.37;7.70;;;;;;;;;;5051995;28;20222;-72
2021/10/28 00:55:36;;;;;;;11.33;7.67;;;;;;;;;;5052650;28;20202;-72
2021/10/28 00:58:02;;;;;;;12.07;8.07;;;;;;;;;;5058469;28;20300;-72
2021/10/28 01:34:50;;;;;;;12.63;7.93;;;;;;;;;;5109362;27;20522;-71
2021/10/28 01:37:16;;;;;;;13.00;7.87;;;;;;;;;;5109667;28;20242;-72
2021/10/28 01:39:44;;;;;;;13.07;8.10;;;;;;;;;;5108775;28;20219;-71
2021/10/28 01:42:11;;;;;;;11.07;7.07;;;;;;;;;;5109299;28;20636;-71
2021/10/28 01:44:38;;;;;;;11.97;7.97;;;;;;;;;;5109501;28;20231;-72
2021/10/28 01:47:05;;;;;;;13.57;7.60;;;;;;;;;;5108165;28;20196;-71
2021/10/28 01:49:32;;;;;;;10.87;7.27;;;;;;;;;;5108602;28;20375;-70
2021/10/28 01:51:58;;;;;;;8.87;6.40;;;;;;;;;;5109358;28;20231;-71
2021/10/28 01:54:26;;;;;;;11.80;8.07;;;;;;;;;;5109223;28;20675;-71
2021/10/28 01:56:52;;;;;;;16.10;8.53;;;;;;;;;;5108711;28;20235;-70
2021/10/28 01:59:19;;;;;;;10.23;6.50;;;;;;;;;;5109862;28;20196;-70
2021/10/28 02:01:45;;;;;;;12.67;7.03;;;;;;;;;;5111100;28;20200;-72
2021/10/28 02:04:13;;;;;;;9.27;6.60;;;;;;;;;;5111276;28;20646;-70
2021/10/28 02:06:40;;;;;;;9.73;6.37;;;;;;;;;;5109757;28;20196;-69
2021/10/28 02:09:07;;;;;;;10.33;6.97;;;;;;;;;;5109206;28;20223;-72
2021/10/28 02:11:34;;;;;;;10.10;6.63;;;;;;;;;;5108266;28;20261;-70
2021/10/28 02:14:00;;;;;;;10.03;6.60;;;;;;;;;;5108759;28;20314;-69
2021/10/28 02:16:33;;;;;;;9.73;6.33;;;;;;;;;;5108612;28;20231;-70
2021/10/28 02:19:00;;;;;;;7.93;6.13;;;;;;;;;;5109059;28;20207;-71
2021/10/28 02:21:27;;;;;;;8.97;6.07;;;;;;;;;;5107020;28;20214;-71
2021/10/28 02:23:54;;;;;;;9.20;6.23;;;;;;;;;;5108550;28;20279;-71
2021/10/28 02:26:21;;;;;;;10.23;6.33;;;;;;;;;;5108566;28;20230;-71
2021/10/28 02:28:48;;;;;;;8.50;6.20;;;;;;;;;;5108377;28;20211;-72
2021/10/28 02:31:14;;;;;;;8.00;6.20;;;;;;;;;;5107718;28;20298;-70
2021/10/28 02:33:41;;;;;;;10.03;6.63;;;;;;;;;;5090397;28;20319;-70
2021/10/28 02:36:07;;;;;;;8.90;5.97;;;;;;;;;;5108415;28;20318;-70
2021/10/28 02:38:34;;;;;;;9.67;5.83;;;;;;;;;;5108443;28;20302;-71
2021/10/28 02:41:00;;;;;;;8.57;6.20;;;;;;;;;;5107746;28;20214;-69
2021/10/28 02:43:27;;;;;;;7.77;5.63;;;;;;;;;;5089913;28;20230;-70
2021/10/28 02:45:53;;;;;;;8.80;5.97;;;;;;;;;;5095713;28;20211;-70
2021/10/28 02:48:20;;;;;;;9.37;6.10;;;;;;;;;;5074419;28;20198;-71
2021/10/28 02:50:46;;;;;;;9.43;6.47;;;;;;;;;;5073491;28;20655;-70
2021/10/28 02:53:13;;;;;;;9.37;6.33;;;;;;;;;;5074231;28;20256;-69
2021/10/28 02:55:39;;;;;;;10.10;6.43;;;;;;;;;;5074064;28;20857;-70
2021/10/28 02:58:06;;;;;;;9.50;6.33;;;;;;;;;;5080353;28;20287;-73
2021/10/28 03:00:32;;;;;;;8.87;6.13;;;;;;;;;;5093945;28;20232;-69
2021/10/28 03:02:59;;;;;;;10.93;6.97;;;;;;;;;;5094191;28;20224;-70
2021/10/28 03:05:25;;;;;;;10.47;6.40;;;;;;;;;;5098917;28;20227;-71
2021/10/28 03:07:54;;;;;;;8.83;6.17;;;;;;;;;;5106369;28;20204;-71
2021/10/28 03:10:20;;;;;;;10.43;6.90;;;;;;;;;;5098877;28;20197;-70
2021/10/28 03:12:50;;;;;;;9.97;6.77;;;;;;;;;;5094229;28;20225;-71
2021/10/28 03:15:16;;;;;;;11.10;6.77;;;;;;;;;;5094388;28;20248;-70
2021/10/28 03:25:57;;;;;;;9.93;6.37;;;;;;;;;;5094136;28;20204;-70
2021/10/28 03:28:24;;;;;;;11.47;6.57;;;;;;;;;;5093875;28;20200;-70
2021/10/28 03:30:51;;;;;;;9.40;6.53;;;;;;;;;;5093222;28;20292;-69
2021/10/28 03:33:21;;;;;;;8.73;6.53;;;;;;;;;;5093632;28;20315;-72
2021/10/28 03:35:47;;;;;;;8.13;5.70;;;;;;;;;;5093544;28;20208;-70
2021/10/28 03:38:26;;;;;;;9.07;6.13;;;;;;;;;;5093003;28;20290;-70
2021/10/28 03:49:01;;;;;;;11.40;7.13;;;;;;;;;;5095822;28;20667;-70
2021/10/28 03:52:07;;;;;;;10.53;6.90;;;;;;;;;;5079393;28;20239;-70
2021/10/28 04:02:38;;;;;;;10.50;7.50;;;;;;;;;;5093029;28;20247;-70
2021/10/28 04:05:11;;;;;;;10.07;7.03;;;;;;;;;;5092720;28;20216;-70
2021/10/28 04:29:29;;;;;;;8.97;6.40;;;;;;;;;;5112546;28;20196;-71
2021/10/28 04:31:55;;;;;;;11.60;7.03;;;;;;;;;;5096697;28;20280;-71
2021/10/28 04:34:22;;;;;;;10.27;6.23;;;;;;;;;;5092779;28;20219;-70
2021/10/28 04:36:48;;;;;;;9.27;7.00;;;;;;;;;;5078688;28;20721;-71
2021/10/28 04:39:15;;;;;;;8.97;7.10;;;;;;;;;;5077419;28;20282;-71
2021/10/28 04:41:41;;;;;;;8.67;6.70;;;;;;;;;;5094930;28;20208;-71
2021/10/28 04:44:10;;;;;;;9.83;6.80;;;;;;;;;;5112126;28;20220;-71
2021/10/28 04:46:37;;;;;;;9.80;6.27;;;;;;;;;;5114014;28;20221;-71
2021/10/28 04:49:03;;;;;;;11.00;7.10;;;;;;;;;;5103059;28;20211;-71
2021/10/28 04:51:30;;;;;;;10.57;6.77;;;;;;;;;;5093259;28;20280;-71
2021/10/28 04:53:56;;;;;;;10.53;6.87;;;;;;;;;;5092795;28;20271;-71
2021/10/28 04:56:23;;;;;;;10.60;7.00;;;;;;;;;;5092294;28;20255;-71
2021/10/28 04:58:49;;;;;;;15.10;7.47;;;;;;;;;;5092186;28;20257;-71
2021/10/28 05:01:16;;;;;;;9.77;6.70;;;;;;;;;;5090115;28;20209;-71
2021/10/28 05:03:42;;;;;;;10.93;6.67;;;;;;;;;;5085284;28;20312;-71
2021/10/28 05:06:09;;;;;;;8.83;6.63;;;;;;;;;;5090846;28;20236;-72
2021/10/28 05:08:35;;;;;;;10.63;7.10;;;;;;;;;;5091526;28;20200;-71
2021/10/28 05:11:02;;;;;;;10.50;6.60;;;;;;;;;;5089727;28;20312;-71
2021/10/28 05:13:28;;;;;;;11.27;6.90;;;;;;;;;;5083194;28;20299;-72
2021/10/28 05:15:55;;;;;;;8.43;6.33;;;;;;;;;;5084430;28;20232;-71
2021/10/28 05:18:25;;;;;;;11.90;7.53;;;;;;;;;;5085930;28;20197;-71
2021/10/28 05:20:53;;;;;;;11.70;7.23;;;;;;;;;;5080268;28;20223;-72
2021/10/28 05:23:19;;;;;;;9.60;6.43;;;;;;;;;;5073767;28;20740;-72
2021/10/28 05:25:49;;;;;;;12.07;7.17;;;;;;;;;;5079089;28;20312;-72
2021/10/28 05:28:16;;;;;;;9.33;6.60;;;;;;;;;;5083058;28;20660;-73
2021/10/28 05:30:43;;;;;;;9.33;6.83;;;;;;;;;;5081423;28;20284;-72
2021/10/28 05:33:14;;;;;;;10.53;7.07;;;;;;;;;;5076671;28;20233;-71
2021/10/28 05:35:41;;;;;;;11.60;7.00;;;;;;;;;;5071662;28;20251;-71
2021/10/28 05:38:07;;;;;;;10.17;7.10;;;;;;;;;;5071451;28;20212;-71
2021/10/28 05:40:33;;;;;;;9.03;6.47;;;;;;;;;;5088944;28;20233;-72
2021/10/28 05:43:01;;;;;;;9.37;6.80;;;;;;;;;;5091568;28;20307;-71
2021/10/28 05:45:30;;;;;;;10.27;6.77;;;;;;;;;;5087123;28;21001;-71
2021/10/28 05:47:57;;;;;;;10.53;6.67;;;;;;;;;;5087404;28;20660;-70
2021/10/28 05:50:24;;;;;;;9.87;6.57;;;;;;;;;;5088494;28;20201;-70
2021/10/28 05:52:53;;;;;;;9.53;6.67;;;;;;;;;;5085657;28;20233;-70
2021/10/28 05:55:21;;;;;;;9.07;6.50;;;;;;;;;;5080775;28;20253;-71
2021/10/28 05:57:48;;;;;;;9.60;6.30;;;;;;;;;;5081688;28;20235;-71
2021/10/28 06:00:15;;;;;;;11.67;6.77;;;;;;;;;;5081169;28;20287;-69
2021/10/28 06:02:42;;;;;;;10.17;6.03;;;;;;;;;;5088932;28;20259;-70
2021/10/28 06:05:09;;;;;;;10.40;6.63;;;;;;;;;;5089130;28;20260;-71
2021/10/28 06:07:35;;;;;;;7.77;5.83;;;;;;;;;;5088843;28;20232;-71
2021/10/28 06:10:02;;;;;;;9.80;6.40;;;;;;;;;;5087191;28;20254;-72
2021/10/28 06:12:34;;;;;;;8.87;5.83;;;;;;;;;;5088859;28;20251;-70
2021/10/28 06:15:02;;;;;;;9.17;6.07;;;;;;;;;;5088774;28;20266;-71
2021/10/28 06:17:36;;;;;;;9.53;6.53;;;;;;;;;;5088231;28;20288;-69
2021/10/28 06:20:03;;;;;;;11.40;7.27;;;;;;;;;;5088180;28;20213;-70
2021/10/28 06:22:30;;;;;;;10.50;6.73;;;;;;;;;;5091614;28;20228;-69
2021/10/28 06:24:57;;;;;;;12.13;7.30;;;;;;;;;;5092358;28;20307;-70
2021/10/28 06:27:24;;;;;;;9.53;6.20;;;;;;;;;;5090909;28;20498;-71
2021/10/28 06:29:50;;;;;;;9.63;7.03;;;;;;;;;;5088765;28;20196;-70
2021/10/28 06:32:16;;;;;;;8.90;6.13;;;;;;;;;;5089587;28;20616;-70
2021/10/28 06:34:45;;;;;;;9.10;5.97;;;;;;;;;;5073612;28;20219;-69
2021/10/28 06:37:12;;;;;;;10.67;6.30;;;;;;;;;;5074387;28;20205;-69
2021/10/28 06:39:38;;;;;;;8.53;5.73;;;;;;;;;;5073640;28;20240;-68
2021/10/28 06:42:05;;;;;;;10.03;6.43;;;;;;;;;;5074461;28;20303;-71
2021/10/28 06:44:32;;;;;;;9.87;5.70;;;;;;;;;;5074686;28;20613;-69
2021/10/28 06:46:59;;;;;;;8.77;5.80;;;;;;;;;;5084210;28;20281;-69
2021/10/28 06:49:29;;;;;;;8.03;5.67;;;;;;;;;;5093951;28;20291;-69
2021/10/28 06:51:56;;;;;;;8.50;5.60;;;;;;;;;;5094553;28;20287;-70
2021/10/28 06:54:30;;;;;;;8.67;5.63;;;;;;;;;;5093362;28;20254;-69
2021/10/28 07:04:41;;;;;;;10.60;6.43;;;;;;;;;;5093145;28;20224;-69
2021/10/28 07:07:07;;;;;;;9.47;6.10;;;;;;;;;;5094243;28;20247;-71
2021/10/28 07:09:38;;;;;;;10.63;6.10;;;;;;;;;;5093586;28;20292;-72
2021/10/28 07:14:38;;;;;;;10.87;6.33;;;;;;;;;;5093955;28;20209;-73
2021/10/28 07:58:13;;;;;;;10.87;6.53;;;;;;;;;;5101847;28;20204;-71
2021/10/28 08:21:51;;;;;;;7.67;5.30;;;;;;;;;;5092953;28;20213;-72
2021/10/28 08:29:39;;;;;;;8.00;5.33;;;;;;;;;;5092228;28;20718;-71
2021/10/28 08:32:06;;;;;;;9.90;5.73;;;;;;;;;;5092318;28;20316;-72
2021/10/28 08:34:36;;;;;;;9.03;5.80;;;;;;;;;;5092797;28;20303;-72
2021/10/28 08:37:14;;;;;;;12.80;6.43;;;;;;;;;;5094671;28;20287;-71
2021/10/28 08:39:45;;;;;;;9.37;6.20;;;;;;;;;;5095236;28;20669;-70
2021/10/28 08:42:13;;;;;;;11.13;6.40;;;;;;;;;;5095299;28;20217;-71
2021/10/28 08:44:41;;;;;;;10.47;6.43;;;;;;;;;;5095572;28;20224;-69
2021/10/28 08:47:08;;;;;;;8.97;6.27;;;;;;;;;;5081711;28;20225;-70
2021/10/28 08:49:39;;;;;;;9.77;6.37;;;;;;;;;;5071265;28;20219;-71
2021/10/28 08:52:24;;;;;;;11.70;7.13;;;;;;;;;;5071775;28;20288;-72
2021/10/28 08:55:35;;;;;;;16.13;7.93;;;;;;;;;;5087565;28;20237;-71
2021/10/28 09:28:02;;;;;;;16.37;9.10;;;;;;;;;;5091937;28;20309;-72
2021/10/28 09:30:37;;;;;;;16.00;9.13;;;;;;;;;;5091097;28;20287;-72
2021/10/28 09:33:08;;;;;;;17.03;8.33;;;;;;;;;;5090239;28;20661;-72
2021/10/28 09:36:14;;;;;;;15.13;9.43;;;;;;;;;;5091533;28;20291;-72
2021/10/28 09:44:39;;;;;;;20.30;8.83;;;;;;;;;;5091369;28;20200;-72
2021/10/28 09:47:30;;;;;;;14.23;7.80;;;;;;;;;;5079875;28;20233;-72
2021/10/28 09:50:04;;;;;;;15.90;9.27;;;;;;;;;;5070880;28;20205;-72
2021/10/28 09:52:34;;;;;;;14.90;8.70;;;;;;;;;;5086766;28;20252;-72
2021/10/28 09:58:32;;;;;;;11.50;6.20;;;;;;;;;;5084512;28;20179;-70
2021/10/28 10:01:01;;;;;;;9.93;5.90;;;;;;;;;;5094640;28;20245;-69
2021/10/28 10:03:34;;;;;;;9.73;5.70;;;;;;;;;;5095095;28;20315;-72
2021/10/28 10:08:27;;;;;;;13.13;5.97;;;;;;;;;;5095458;28;20243;-72
2021/10/28 10:10:54;;;;;;;9.47;6.87;;;;;;;;;;5098272;28;20264;-72
2021/10/28 10:13:27;;;;;;;9.83;5.90;;;;;;;;;;5099994;28;20256;-71
2021/10/28 10:15:57;;;;;;;10.30;6.50;;;;;;;;;;5096879;28;20371;-72
2021/10/28 10:18:31;;;;;;;10.33;7.00;;;;;;;;;;5095526;28;20300;-72
2021/10/28 10:21:04;;;;;;;9.73;6.43;;;;;;;;;;5089695;28;20293;-72
2021/10/28 10:24:00;;;;;;;8.53;5.70;;;;;;;;;;5087470;28;20274;-72
2021/10/28 10:26:58;;;;;;;9.43;6.03;;;;;;;;;;5091324;28;20232;-72
2021/10/28 12:14:45;;;;;;;13.40;8.50;;;;;;;;;;5086774;28;20801;-70
2021/10/28 12:27:50;;;;;;;13.20;8.83;;;;;;;;;;5088814;28;20558;-69
2021/10/28 12:28:37;;;;;;;14.97;9.10;;;;;;;;;;5080249;28;20197;-71
2021/10/28 13:02:43;;;;;;;12.33;8.63;;;;;;;;;;5080660;28;20289;-69
2021/10/28 13:38:10;;;;;;;15.83;10.47;;;;;;;;;;5071780;28;20255;-69
2021/10/28 13:54:36;;;;;;;20.00;10.90;;;;;;;;;;5070920;28;20279;-69
2021/10/28 15:03:27;;;;;;;18.40;10.57;;;;;;;;;;5073555;28;20246;-70
2021/10/28 15:41:26;;;;;;;16.77;10.63;;;;;;;;;;5089532;28;20284;-68
2021/10/28 16:22:03;;;;;;;18.60;11.83;;;;;;;;;;5090881;28;20307;-70
2021/10/28 16:24:31;;;;;;;19.80;11.67;;;;;;;;;;5091487;28;20908;-74
2021/10/28 16:26:57;;;;;;;19.50;11.67;;;;;;;;;;5071881;28;20263;-71
2021/10/28 16:29:25;;;;;;;20.10;11.70;;;;;;;;;;5070147;28;20673;-69
2021/10/28 16:31:52;;;;;;;23.07;12.57;;;;;;;;;;5071665;28;20205;-69
2021/10/28 16:34:23;;;;;;;19.77;11.67;;;;;;;;;;5071748;28;20248;-68
2021/10/28 16:36:50;;;;;;;19.30;12.00;;;;;;;;;;5071711;28;20236;-67
2021/10/28 16:39:17;;;;;;;19.23;11.60;;;;;;;;;;5072185;28;20211;-69
2021/10/28 16:41:47;;;;;;;21.07;12.17;;;;;;;;;;5070960;28;20296;-69
2021/10/28 16:44:14;;;;;;;19.13;12.03;;;;;;;;;;5071688;28;20278;-70
2021/10/28 16:46:41;;;;;;;21.23;12.37;;;;;;;;;;5081293;28;20223;-70
2021/10/28 16:49:11;;;;;;;22.07;13.00;;;;;;;;;;5070582;28;20827;-69
2021/10/28 16:51:38;;;;;;;18.67;11.90;;;;;;;;;;5070539;28;20311;-71
2021/10/28 16:54:05;;;;;;;21.70;12.27;;;;;;;;;;5071490;28;20235;-67
2021/10/28 16:56:31;;;;;;;19.27;11.97;;;;;;;;;;5072152;28;20205;-68
2021/10/28 16:58:58;;;;;;;22.33;12.87;;;;;;;;;;5085052;28;20201;-67
2021/10/28 17:01:25;;;;;;;21.93;13.03;;;;;;;;;;5091126;28;20461;-69
2021/10/28 17:03:52;;;;;;;23.63;13.13;;;;;;;;;;5076039;28;20221;-69
2021/10/28 17:06:20;;;;;;;22.77;13.07;;;;;;;;;;5069937;28;20331;-69
2021/10/28 17:08:47;;;;;;;20.57;12.90;;;;;;;;;;5071109;28;20296;-70
2021/10/28 17:11:14;;;;;;;23.70;13.07;;;;;;;;;;5070687;28;20236;-69
2021/10/28 17:13:42;;;;;;;20.27;12.83;;;;;;;;;;5071161;28;20407;-70
2021/10/28 17:16:08;;;;;;;19.70;12.43;;;;;;;;;;5071021;28;20300;-69
2021/10/28 17:18:35;;;;;;;23.80;13.13;;;;;;;;;;5071245;28;20227;-68
2021/10/28 17:21:07;;;;;;;21.60;12.43;;;;;;;;;;5070882;28;20296;-70
2021/10/28 17:23:38;;;;;;;22.70;13.57;;;;;;;;;;5071576;28;20260;-69
2021/10/28 17:26:05;;;;;;;21.00;12.57;;;;;;;;;;5084361;28;20291;-69
2021/10/28 17:28:32;;;;;;;19.70;11.87;;;;;;;;;;5091530;28;20311;-68
2021/10/28 17:30:59;;;;;;;18.07;11.60;;;;;;;;;;5090640;28;20284;-68
2021/10/28 17:33:26;;;;;;;17.13;10.73;;;;;;;;;;5090052;28;20312;-68
2021/10/28 17:35:53;;;;;;;19.30;11.60;;;;;;;;;;5091638;28;20752;-68
2021/10/28 17:38:21;;;;;;;21.60;12.87;;;;;;;;;;5091571;28;20668;-68
2021/10/28 17:40:47;;;;;;;25.87;13.13;;;;;;;;;;5090982;28;20283;-68
2021/10/28 17:43:29;;;;;;;21.10;12.93;;;;;;;;;;5091421;28;20228;-68
2021/10/28 17:45:57;;;;;;;21.60;12.70;;;;;;;;;;5090626;28;20212;-68
2021/10/28 17:48:24;;;;;;;18.90;11.63;;;;;;;;;;5071462;28;20232;-68
2021/10/28 17:50:50;;;;;;;24.23;13.20;;;;;;;;;;5072574;28;20391;-68
2021/10/28 17:53:17;;;;;;;21.20;12.77;;;;;;;;;;5074682;28;20277;-67
2021/10/28 17:55:43;;;;;;;26.27;12.73;;;;;;;;;;5073412;28;20285;-68
2021/10/28 17:58:09;;;;;;;20.20;12.00;;;;;;;;;;5075556;28;20287;-69
2021/10/28 18:00:36;;;;;;;24.67;14.37;;;;;;;;;;5090173;28;20716;-67
2021/10/28 18:03:03;;;;;;;22.60;13.47;;;;;;;;;;5089907;28;20365;-71
2021/10/28 18:05:39;;;;;;;23.23;13.80;;;;;;;;;;5091211;28;20196;-70
2021/10/28 18:08:07;;;;;;;24.67;13.77;;;;;;;;;;5089406;28;20265;-72
2021/10/28 18:10:34;;;;;;;22.03;13.13;;;;;;;;;;5090045;28;20381;-71
2021/10/28 18:13:00;;;;;;;22.43;12.53;;;;;;;;;;5090651;28;20220;-70
2021/10/28 18:15:28;;;;;;;22.47;13.43;;;;;;;;;;5089655;28;20197;-71
2021/10/28 18:17:55;;;;;;;19.43;13.00;;;;;;;;;;5094646;28;20280;-73
2021/10/28 18:20:21;;;;;;;22.27;12.30;;;;;;;;;;5093027;28;20615;-72
2021/10/28 18:22:48;;;;;;;23.00;12.57;;;;;;;;;;5094279;28;20671;-72
2021/10/28 18:25:14;;;;;;;22.67;13.00;;;;;;;;;;5093972;28;20287;-71
2021/10/28 18:27:41;;;;;;;25.20;14.70;;;;;;;;;;5093000;28;20872;-70
2021/10/28 18:30:10;;;;;;;26.17;12.77;;;;;;;;;;5092285;28;20208;-69
2021/10/28 18:32:37;;;;;;;22.47;13.50;;;;;;;;;;5093713;28;20258;-68
2021/10/28 18:35:04;;;;;;;23.77;12.93;;;;;;;;;;5092979;28;20217;-69
2021/10/28 18:37:31;;;;;;;25.90;13.27;;;;;;;;;;5093847;28;20239;-68
2021/10/28 18:39:57;;;;;;;21.67;12.90;;;;;;;;;;5093133;28;20243;-68
2021/10/28 18:42:24;;;;;;;22.27;13.63;;;;;;;;;;5093808;28;20679;-69
2021/10/28 18:44:50;;;;;;;25.17;14.40;;;;;;;;;;5094034;28;20236;-68
2021/10/28 18:47:17;;;;;;;22.43;13.20;;;;;;;;;;5093794;28;20246;-69
2021/10/28 18:49:44;;;;;;;25.23;14.13;;;;;;;;;;5093167;28;20215;-70
2021/10/28 18:52:10;;;;;;;24.60;14.60;;;;;;;;;;5093496;28;20254;-70
2021/10/28 18:54:38;;;;;;;22.10;14.10;;;;;;;;;;5093944;28;20201;-69
2021/10/28 18:57:04;;;;;;;26.03;14.93;;;;;;;;;;5093651;28;20287;-69
2021/10/28 18:59:30;;;;;;;25.77;14.37;;;;;;;;;;5093128;28;20283;-68
2021/10/28 19:01:57;;;;;;;27.23;13.80;;;;;;;;;;5093650;28;20207;-70
2021/10/28 19:04:24;;;;;;;24.83;14.97;;;;;;;;;;5089740;28;20853;-69
2021/10/28 19:06:50;;;;;;;22.20;13.47;;;;;;;;;;5074775;28;20213;-71
2021/10/28 19:09:17;;;;;;;25.80;13.60;;;;;;;;;;5081250;28;20201;-71
2021/10/28 19:11:44;;;;;;;21.17;12.47;;;;;;;;;;5093059;28;20284;-71
2021/10/28 19:14:11;;;;;;;21.43;12.37;;;;;;;;;;5093299;28;20776;-72
2021/10/28 19:16:38;;;;;;;24.17;13.67;;;;;;;;;;5093465;28;20251;-73
2021/10/28 19:19:04;;;;;;;22.87;12.90;;;;;;;;;;5090818;28;20213;-72
2021/10/28 19:21:31;;;;;;;22.40;13.83;;;;;;;;;;5082418;28;20232;-69
2021/10/28 19:23:57;;;;;;;28.03;15.40;;;;;;;;;;5093150;28;20790;-73
2021/10/28 19:26:24;;;;;;;23.13;13.37;;;;;;;;;;5091381;28;20694;-73
2021/10/28 19:28:51;;;;;;;27.43;14.97;;;;;;;;;;5091715;28;20324;-71
2021/10/28 19:31:21;;;;;;;23.07;12.73;;;;;;;;;;5092221;28;20243;-73
2021/10/28 19:33:50;;;;;;;24.17;13.33;;;;;;;;;;5092861;28;20258;-72
2021/10/28 19:37:03;;;;;;;22.87;13.77;;;;;;;;;;5092851;28;20734;-71
2021/10/28 19:47:07;;;;;;;25.23;13.00;;;;;;;;;;5081974;28;20232;-71
2021/10/28 19:49:33;;;;;;;21.97;12.53;;;;;;;;;;5071737;28;20280;-72
2021/10/28 19:52:06;;;;;;;23.27;13.53;;;;;;;;;;5072262;28;20244;-71
2021/10/28 19:54:36;;;;;;;20.67;12.30;;;;;;;;;;5072279;28;20304;-72
2021/10/28 19:57:02;;;;;;;21.50;12.53;;;;;;;;;;5072117;28;20239;-72
2021/10/28 19:59:33;;;;;;;22.23;13.10;;;;;;;;;;5089572;28;20232;-68
2021/10/28 20:02:06;;;;;;;23.30;13.53;;;;;;;;;;5092585;28;20291;-71
2021/10/28 20:07:11;;;;;;;23.73;12.67;;;;;;;;;;5092741;28;20232;-70
2021/10/28 20:20:41;;;;;;;22.17;12.73;;;;;;;;;;5089714;28;20200;-72
2021/10/28 20:23:08;;;;;;;23.03;12.63;;;;;;;;;;5086825;28;20696;-72
2021/10/28 20:25:34;;;;;;;20.57;11.73;;;;;;;;;;5087846;28;20287;-72
2021/10/28 20:28:04;;;;;;;20.90;12.63;;;;;;;;;;5084045;28;20248;-73
2021/10/28 20:30:33;;;;;;;18.30;11.70;;;;;;;;;;5084330;28;20216;-73
2021/10/28 20:32:59;;;;;;;22.73;13.30;;;;;;;;;;5082251;28;20225;-72
2021/10/28 20:38:11;;;;;;;19.37;12.03;;;;;;;;;;5080569;28;20737;-71
2021/10/28 20:40:37;;;;;;;24.37;13.17;;;;;;;;;;5081171;28;20197;-72
2021/10/28 20:43:04;;;;;;;24.20;13.30;;;;;;;;;;5082948;28;20220;-72
2021/10/28 20:45:30;;;;;;;25.37;13.20;;;;;;;;;;5083472;28;20745;-73
2021/10/28 20:47:57;;;;;;;26.70;13.83;;;;;;;;;;5074306;28;20304;-73
2021/10/28 20:50:24;;;;;;;23.43;12.67;;;;;;;;;;5071267;28;20673;-73
2021/10/28 20:52:51;;;;;;;23.80;14.37;;;;;;;;;;5071597;28;20713;-73
2021/10/28 20:55:17;;;;;;;26.77;14.00;;;;;;;;;;5071653;28;20241;-69
2021/10/28 20:57:44;;;;;;;22.73;13.07;;;;;;;;;;5075036;28;20335;-71
2021/10/28 21:00:13;;;;;;;28.33;14.43;;;;;;;;;;5091379;28;20334;-69
2021/10/28 21:02:40;;;;;;;27.87;13.40;;;;;;;;;;5091987;28;20753;-69
2021/10/28 21:05:12;;;;;;;27.17;13.77;;;;;;;;;;5092086;28;20205;-68
2021/10/28 21:07:40;;;;;;;28.17;14.63;;;;;;;;;;5091820;28;20649;-69
2021/10/28 21:10:07;;;;;;;23.03;13.60;;;;;;;;;;5091113;28;20290;-71
2021/10/28 21:12:34;;;;;;;22.97;13.13;;;;;;;;;;5092541;28;20256;-69
2021/10/28 21:15:00;;;;;;;26.50;13.97;;;;;;;;;;5092163;28;20204;-70
2021/10/28 21:17:27;;;;;;;29.43;14.83;;;;;;;;;;5090676;28;20665;-69
2021/10/28 21:19:53;;;;;;;26.13;14.40;;;;;;;;;;5091269;28;20204;-69
2021/10/28 21:22:22;;;;;;;28.53;15.10;;;;;;;;;;5090351;28;20209;-70
2021/10/28 21:24:50;;;;;;;28.67;14.27;;;;;;;;;;5091573;28;20211;-70
2021/10/28 21:27:17;;;;;;;27.20;14.30;;;;;;;;;;5091719;28;20200;-71
2021/10/28 21:29:44;;;;;;;25.80;13.90;;;;;;;;;;5090798;28;20680;-69
2021/10/28 21:32:10;;;;;;;27.47;15.33;;;;;;;;;;5091352;28;20764;-72
2021/10/28 21:34:38;;;;;;;30.37;14.43;;;;;;;;;;5091231;28;20292;-71
2021/10/28 21:37:08;;;;;;;28.10;15.27;;;;;;;;;;5091343;28;20197;-72
2021/10/28 21:39:34;;;;;;;22.83;13.50;;;;;;;;;;5091097;28;20228;-71
2021/10/28 21:42:01;;;;;;;21.30;13.27;;;;;;;;;;5092361;28;20231;-72
2021/10/28 21:44:27;;;;;;;23.47;13.33;;;;;;;;;;5090951;28;20252;-72
2021/10/28 21:46:54;;;;;;;22.10;13.43;;;;;;;;;;5083509;28;20228;-72
2021/10/28 21:49:20;;;;;;;25.00;13.60;;;;;;;;;;5071556;28;20324;-72
2021/10/28 21:51:50;;;;;;;25.93;13.70;;;;;;;;;;5074610;28;20280;-72
2021/10/28 21:57:10;;;;;;;24.97;13.80;;;;;;;;;;5075544;28;20300;-73
2021/10/28 22:24:25;;;;;;;26.77;14.50;;;;;;;;;;5095001;28;20621;-70
2021/10/28 22:26:54;;;;;;;28.67;15.20;;;;;;;;;;5094666;28;20205;-72
2021/10/28 22:29:20;;;;;;;28.83;15.47;;;;;;;;;;5094861;28;20772;-71
2021/10/28 22:31:47;;;;;;;27.37;14.70;;;;;;;;;;5093564;28;20231;-70
2021/10/28 22:34:15;;;;;;;31.83;16.83;;;;;;;;;;5094679;28;20239;-70
2021/10/28 22:36:49;;;;;;;30.10;16.47;;;;;;;;;;5094702;28;20756;-69
2021/10/28 22:39:21;;;;;;;30.93;15.87;;;;;;;;;;5094845;28;20300;-72
2021/10/28 22:41:47;;;;;;;27.67;15.03;;;;;;;;;;5094855;28;20207;-70
2021/10/28 22:44:14;;;;;;;26.83;15.10;;;;;;;;;;5094843;28;20315;-70
2021/10/28 22:46:40;;;;;;;27.93;15.67;;;;;;;;;;5087726;28;20236;-70
2021/10/28 22:49:07;;;;;;;28.67;15.70;;;;;;;;;;5073320;28;20239;-70
2021/10/28 22:51:33;;;;;;;29.70;15.63;;;;;;;;;;5073733;28;20201;-72
2021/10/28 22:54:00;;;;;;;30.70;15.70;;;;;;;;;;5074299;28;20221;-69
2021/10/28 22:56:27;;;;;;;29.13;15.60;;;;;;;;;;5073341;28;20292;-70
2021/10/28 22:59:01;;;;;;;28.67;15.77;;;;;;;;;;5087263;28;20205;-72
2021/10/28 23:01:35;;;;;;;25.93;14.83;;;;;;;;;;5093442;28;20211;-71
2021/10/28 23:04:26;;;;;;;31.23;16.37;;;;;;;;;;5094572;28;20231;-71
2021/10/28 23:22:59;;;;;;;29.73;16.07;;;;;;;;;;5094025;28;20669;-73
2021/10/28 23:25:25;;;;;;;29.13;15.00;;;;;;;;;;5094189;28;20236;-72
2021/10/28 23:27:52;;;;;;;30.30;15.73;;;;;;;;;;5093829;28;20204;-72
2021/10/28 23:30:18;;;;;;;26.00;15.23;;;;;;;;;;5093254;28;20708;-71
2021/10/28 23:32:44;;;;;;;26.93;15.23;;;;;;;;;;5093501;28;20709;-72
2021/10/28 23:35:11;;;;;;;29.73;15.17;;;;;;;;;;5093715;28;20315;-71
2021/10/28 23:37:37;;;;;;;30.57;15.30;;;;;;;;;;5092216;28;20205;-72
2021/10/28 23:40:04;;;;;;;28.67;15.43;;;;;;;;;;5093325;28;20231;-72
2021/10/28 23:42:30;;;;;;;27.00;15.50;;;;;;;;;;5093698;28;20226;-71
2021/10/28 23:44:57;;;;;;;26.30;14.37;;;;;;;;;;5093622;28;20232;-71
2021/10/28 23:47:23;;;;;;;31.23;16.37;;;;;;;;;;5080496;28;20201;-70
2021/10/28 23:49:49;;;;;;;27.03;15.07;;;;;;;;;;5072484;28;20231;-70
2021/10/28 23:52:16;;;;;;;26.43;15.43;;;;;;;;;;5071676;28;20201;-70
2021/10/28 23:54:42;;;;;;;30.83;15.47;;;;;;;;;;5073332;28;20236;-70
2021/10/28 23:57:09;;;;;;;32.47;16.03;;;;;;;;;;5073004;28;20212;-71
2021/10/28 23:59:35;;;;;;;30.63;15.67;;;;;;;;;;5091040;28;20240;-70
